createdAt,value
2023-02-14T00:03:54.920Z,3.24
2023-02-14T00:08:57.232Z,3.25
2023-02-14T00:14:18.120Z,3.22
2023-02-14T00:19:21.010Z,3.22
2023-02-14T00:24:26.100Z,3.20
2023-02-14T00:29:30.569Z,3.19
2023-02-14T00:34:33.669Z,3.19
2023-02-14T00:39:35.756Z,3.18
2023-02-14T00:44:38.330Z,3.16
2023-02-14T00:49:40.397Z,3.15
2023-02-14T00:54:42.682Z,3.13
2023-02-14T00:59:44.707Z,3.12
2023-02-14T01:04:46.925Z,3.10
2023-02-14T01:09:49.016Z,3.10
2023-02-14T01:14:51.067Z,3.10
2023-02-14T01:19:53.743Z,3.08
2023-02-14T01:24:55.710Z,3.06
2023-02-14T01:29:57.763Z,3.06
2023-02-14T01:35:00.392Z,3.04
2023-02-14T01:40:03.026Z,3.03
2023-02-14T01:45:07.287Z,3.01
2023-02-14T01:50:14.338Z,3.01
2023-02-14T01:55:22.101Z,2.98
2023-02-14T02:05:46.677Z,2.97
2023-02-14T02:10:48.661Z,2.94
2023-02-14T02:16:03.640Z,2.94
2023-02-14T02:21:24.364Z,2.94
2023-02-14T02:26:59.251Z,2.93
2023-02-14T02:32:22.825Z,2.90
2023-02-14T02:38:00.638Z,2.91
2023-02-14T02:43:14.446Z,2.89
2023-02-14T02:48:23.550Z,2.89
2023-02-14T02:53:43.125Z,2.85
2023-02-14T02:58:53.388Z,2.85
2023-02-14T03:04:19.812Z,2.82
2023-02-14T03:09:24.466Z,2.84
2023-02-14T03:14:32.836Z,2.82
2023-02-14T03:20:06.442Z,2.81
2023-02-14T03:25:40.528Z,2.79
2023-02-14T03:31:07.400Z,2.78
2023-02-14T03:36:13.636Z,2.77
2023-02-14T03:41:22.758Z,2.74
2023-02-14T03:46:47.689Z,2.74
2023-02-14T03:51:53.163Z,2.73
2023-02-14T03:57:17.466Z,2.71
2023-02-14T04:02:27.525Z,2.71
2023-02-14T04:07:29.587Z,2.69
2023-02-14T04:12:37.773Z,2.68
2023-02-14T04:17:59.175Z,2.67
2023-02-14T04:23:03.306Z,2.67
2023-02-14T04:28:05.681Z,2.66
2023-02-14T04:33:08.578Z,2.63
2023-02-14T04:38:10.652Z,2.62
2023-02-14T04:43:12.660Z,2.61
2023-02-14T04:48:14.697Z,2.62
2023-02-14T04:53:19.605Z,2.59
2023-02-14T04:58:21.604Z,2.59
2023-02-14T05:03:23.689Z,2.56
2023-02-14T05:08:25.658Z,2.56
2023-02-14T05:13:28.789Z,2.53
2023-02-14T05:18:30.799Z,2.54
2023-02-14T05:23:32.774Z,2.53
2023-02-14T05:28:34.938Z,2.52
2023-02-14T05:33:37.022Z,2.51
2023-02-14T05:38:39.057Z,2.49
2023-02-14T05:43:41.104Z,2.49
2023-02-14T05:48:43.104Z,2.47
2023-02-14T05:53:45.121Z,2.46
2023-02-14T05:58:47.083Z,2.45
2023-02-14T06:03:49.078Z,2.46
2023-02-14T06:08:51.152Z,2.43
2023-02-14T06:13:53.104Z,2.43
2023-02-14T06:18:55.110Z,2.41
2023-02-14T06:23:57.257Z,2.40
2023-02-14T06:28:59.752Z,2.39
2023-02-14T06:34:01.894Z,2.39
2023-02-14T06:39:04.022Z,2.37
2023-02-14T06:44:06.053Z,2.38
2023-02-14T06:49:08.114Z,2.36
2023-02-14T06:54:10.104Z,2.34
2023-02-14T06:59:12.052Z,2.35
2023-02-14T07:04:14.042Z,2.35
2023-02-14T07:09:18.941Z,2.36
2023-02-14T07:14:20.991Z,2.36
2023-02-14T07:19:22.980Z,2.33
2023-02-14T07:24:25.296Z,2.36
2023-02-14T07:29:27.313Z,2.34
2023-02-14T07:34:29.335Z,2.36
2023-02-14T07:39:31.347Z,2.36
2023-02-14T07:44:33.381Z,2.35
2023-02-14T07:49:35.665Z,2.36
2023-02-14T07:54:39.072Z,2.36
2023-02-14T07:59:41.081Z,2.37
2023-02-14T08:04:43.147Z,2.38
2023-02-14T08:09:47.614Z,2.38
2023-02-14T08:14:49.598Z,2.38
2023-02-14T08:19:52.058Z,2.37
2023-02-14T08:24:54.147Z,2.39
2023-02-14T08:29:56.260Z,2.41
2023-02-14T08:34:58.445Z,2.42
2023-02-14T08:40:00.555Z,2.43
2023-02-14T08:45:02.626Z,2.44
2023-02-14T08:50:07.362Z,2.45
2023-02-14T08:55:10.010Z,2.48
2023-02-14T09:00:12.581Z,2.49
2023-02-14T09:05:14.715Z,2.50
2023-02-14T09:10:18.782Z,2.53
2023-02-14T09:15:20.958Z,2.55
2023-02-14T09:20:23.178Z,2.57
2023-02-14T09:25:25.408Z,2.57
2023-02-14T09:30:27.581Z,2.58
2023-02-14T09:35:29.666Z,2.60
2023-02-14T09:40:33.646Z,2.64
2023-02-14T09:45:36.575Z,2.64
2023-02-14T09:50:45.586Z,2.69
2023-02-14T09:56:02.258Z,2.70
2023-02-14T10:01:23.107Z,2.74
2023-02-14T10:06:37.332Z,2.76
2023-02-14T10:11:41.000Z,2.78
2023-02-14T10:17:08.738Z,2.84
2023-02-14T10:22:17.428Z,2.87
2023-02-14T10:27:36.793Z,2.91
2023-02-14T10:32:59.369Z,2.93
2023-02-14T10:38:17.674Z,3.00
2023-02-14T10:43:29.587Z,3.01
2023-02-14T10:48:58.163Z,3.07
2023-02-14T10:54:23.003Z,3.15
2023-02-14T10:59:32.474Z,3.19
2023-02-14T11:04:35.940Z,3.25
2023-02-14T11:09:38.054Z,3.31
2023-02-14T11:14:41.140Z,3.35
2023-02-14T11:20:03.651Z,3.41
2023-02-14T11:25:18.224Z,3.49
2023-02-14T11:30:41.567Z,3.56
2023-02-14T11:35:51.795Z,3.62
2023-02-14T11:40:57.292Z,3.68
2023-02-14T11:46:17.417Z,3.75
2023-02-14T11:51:24.395Z,3.83
2023-02-14T11:56:48.802Z,3.90
2023-02-14T12:01:52.828Z,3.97
2023-02-14T12:06:55.300Z,4.05
2023-02-14T12:12:01.349Z,4.13
2023-02-14T12:17:12.231Z,4.19
2023-02-14T12:22:21.103Z,4.26
2023-02-14T12:27:35.633Z,4.33
2023-02-14T12:32:39.291Z,4.37
2023-02-14T12:38:04.306Z,4.44
2023-02-14T12:43:25.643Z,4.50
2023-02-14T12:48:58.477Z,4.56
2023-02-14T12:54:18.874Z,4.61
2023-02-14T12:59:23.944Z,4.66
2023-02-14T13:05:02.034Z,4.69
2023-02-14T13:10:27.612Z,4.75
2023-02-14T13:15:52.923Z,4.81
2023-02-14T13:20:59.166Z,4.83
2023-02-14T13:26:07.989Z,4.85
2023-02-14T13:31:11.496Z,4.90
2023-02-14T13:36:14.334Z,4.92
2023-02-14T13:41:19.764Z,4.96
2023-02-14T13:46:34.885Z,4.99
2023-02-14T13:51:52.065Z,5.00
2023-02-14T13:56:54.270Z,5.01
2023-02-14T14:02:16.727Z,5.03
2023-02-14T14:07:27.289Z,5.05
2023-02-14T14:12:29.324Z,5.07
2023-02-14T14:17:34.054Z,5.08
2023-02-14T14:22:48.120Z,5.08
2023-02-14T14:27:51.192Z,5.08
2023-02-14T14:32:53.622Z,5.07
2023-02-14T14:37:58.027Z,5.09
2023-02-14T14:43:18.354Z,5.05
2023-02-14T14:48:41.510Z,5.07
2023-02-14T14:54:01.938Z,5.06
2023-02-14T14:59:28.193Z,5.04
2023-02-14T15:04:35.708Z,5.02
2023-02-14T15:09:37.824Z,5.00
2023-02-14T15:14:43.402Z,4.99
2023-02-14T15:19:51.251Z,4.97
2023-02-14T15:24:54.013Z,4.93
2023-02-14T15:29:59.906Z,4.92
2023-02-14T15:35:05.865Z,4.89
2023-02-14T15:40:09.303Z,4.87
2023-02-14T15:45:46.186Z,4.83
2023-02-14T15:50:55.302Z,4.81
2023-02-14T15:56:08.283Z,4.75
2023-02-14T16:01:10.829Z,4.73
2023-02-14T16:06:40.107Z,4.70
2023-02-14T16:11:42.530Z,4.67
2023-02-14T16:16:59.897Z,4.65
2023-02-14T16:22:02.813Z,4.60
2023-02-14T16:27:09.333Z,4.57
2023-02-14T16:32:21.973Z,4.55
2023-02-14T16:37:35.536Z,4.51
2023-02-14T16:42:41.643Z,4.47
2023-02-14T16:47:46.653Z,4.44
2023-02-14T16:52:53.080Z,4.39
2023-02-14T16:57:55.743Z,4.37
2023-02-14T17:03:11.168Z,4.35
2023-02-14T17:08:16.732Z,4.32
2023-02-14T17:13:24.988Z,4.28
2023-02-14T17:18:28.967Z,4.25
2023-02-14T17:23:32.314Z,4.21
2023-02-14T17:28:34.683Z,4.18
2023-02-14T17:33:37.648Z,4.16
2023-02-14T17:38:43.762Z,4.12
2023-02-14T17:43:48.224Z,4.10
2023-02-14T17:48:51.002Z,4.08
2023-02-14T17:53:53.559Z,4.06
2023-02-14T17:58:56.539Z,4.02
2023-02-14T18:03:59.677Z,4.01
2023-02-14T18:09:06.547Z,3.96
2023-02-14T18:14:11.122Z,3.94
2023-02-14T18:19:20.356Z,3.94
2023-02-14T18:24:23.675Z,3.90
2023-02-14T18:29:26.753Z,3.89
2023-02-14T18:34:31.187Z,3.88
2023-02-14T18:39:35.181Z,3.85
2023-02-14T18:44:37.723Z,3.80
2023-02-14T18:49:46.750Z,3.79
2023-02-14T18:54:49.876Z,3.76
2023-02-14T18:59:52.937Z,3.75
2023-02-14T19:05:00.354Z,3.72
2023-02-14T19:10:08.080Z,3.71
2023-02-14T19:15:13.121Z,3.68
2023-02-14T19:20:19.923Z,3.65
2023-02-14T19:25:23.583Z,3.64
2023-02-14T19:30:26.875Z,3.61
2023-02-14T19:35:30.968Z,3.59
2023-02-14T19:40:36.104Z,3.55
2023-02-14T19:45:40.307Z,3.52
2023-02-14T19:50:46.436Z,3.51
2023-02-14T19:55:50.144Z,3.46
2023-02-14T20:01:01.569Z,3.42
2023-02-14T20:06:05.337Z,3.36
2023-02-14T20:11:31.042Z,3.34
2023-02-14T20:16:37.591Z,3.29
2023-02-14T20:21:43.305Z,3.23
2023-02-14T20:26:48.655Z,3.15
2023-02-14T20:31:55.929Z,3.06
2023-02-14T20:37:00.314Z,2.99
2023-02-14T20:42:04.447Z,2.89
2023-02-14T20:47:09.848Z,2.82
2023-02-14T20:52:14.379Z,2.72
2023-02-14T20:57:19.659Z,2.65
2023-02-14T21:02:23.282Z,2.58
2023-02-14T21:07:31.141Z,2.47
2023-02-14T21:12:35.760Z,2.39
2023-02-14T21:17:39.133Z,2.29
2023-02-14T21:22:42.219Z,2.23
2023-02-14T21:27:44.538Z,2.16
2023-02-14T21:32:48.432Z,2.07
2023-02-14T21:37:52.464Z,2.04
2023-02-14T21:42:55.688Z,1.99
2023-02-14T21:48:17.106Z,1.94
2023-02-14T21:53:20.895Z,1.91
2023-02-14T21:58:23.567Z,1.90
2023-02-14T22:03:26.251Z,1.88
2023-02-14T22:08:28.944Z,1.85
2023-02-14T22:13:31.223Z,1.86
2023-02-14T22:18:33.767Z,1.83
2023-02-14T22:23:37.473Z,1.82
2023-02-14T22:28:41.449Z,1.83
2023-02-14T22:33:44.188Z,1.79
2023-02-14T22:38:46.495Z,1.79
2023-02-14T22:43:48.632Z,1.78
2023-02-14T22:48:51.819Z,1.80
2023-02-14T22:53:56.772Z,1.79
2023-02-14T22:59:02.254Z,1.78
2023-02-14T23:04:05.043Z,1.78
2023-02-14T23:09:10.057Z,1.78
2023-02-14T23:14:32.596Z,1.78
2023-02-14T23:19:54.565Z,1.78
2023-02-14T23:24:59.361Z,1.79
2023-02-14T23:30:01.708Z,1.78
2023-02-14T23:35:04.440Z,1.79
2023-02-14T23:40:07.397Z,1.77
2023-02-14T23:45:48.066Z,1.78
2023-02-14T23:50:50.170Z,1.78
2023-02-14T23:55:52.130Z,1.78
